createdAt,value
2019-05-14T00:00:33.116Z,1.87
2019-05-14T00:05:36.503Z,1.60
2019-05-14T00:10:40.878Z,1.85
2019-05-14T00:13:08.928Z,2.25
2019-05-14T00:15:37.361Z,1.37
2019-05-14T00:23:13.057Z,1.42
2019-05-14T00:25:42.008Z,1.55
2019-05-14T00:28:11.776Z,1.80
2019-05-14T00:30:42.225Z,1.80
2019-05-14T00:33:11.592Z,2.15
2019-05-14T00:35:41.330Z,1.82
2019-05-14T00:38:11.849Z,1.42
2019-05-14T00:40:41.940Z,2.12
2019-05-14T00:43:11.393Z,1.82
2019-05-14T00:45:44.058Z,1.80
2019-05-14T00:48:12.934Z,2.15
2019-05-14T00:50:42.208Z,1.50
2019-05-14T00:53:11.795Z,2.20
2019-05-14T00:55:42.102Z,1.98
2019-05-14T00:58:11.258Z,1.92
2019-05-14T01:00:41.813Z,1.85
2019-05-14T01:05:45.064Z,1.92
2019-05-14T01:08:13.518Z,2.20
2019-05-14T01:10:41.977Z,2.20
2019-05-14T01:13:11.206Z,1.70
2019-05-14T01:15:41.533Z,1.80
2019-05-14T01:18:11.346Z,1.77
2019-05-14T01:20:41.177Z,2.37
2019-05-14T01:23:11.505Z,1.33
2019-05-14T01:25:42.061Z,1.92
2019-05-14T01:28:11.260Z,2.25
2019-05-14T01:31:01.512Z,2.00
2019-05-14T01:33:31.829Z,1.72
2019-05-14T01:36:02.051Z,1.70
2019-05-14T01:38:31.443Z,1.87
2019-05-14T01:41:01.877Z,1.60
2019-05-14T01:43:31.478Z,2.45
2019-05-14T01:46:02.019Z,2.08
2019-05-14T01:48:31.285Z,2.00
2019-05-14T01:51:01.504Z,1.82
2019-05-14T01:53:31.182Z,2.02
2019-05-14T01:56:01.688Z,2.40
2019-05-14T01:58:31.077Z,4.58
2019-05-14T02:01:02.013Z,5.10
2019-05-14T02:03:32.066Z,4.83
2019-05-14T02:06:01.407Z,4.33
2019-05-14T02:08:32.225Z,4.80
2019-05-14T02:11:01.612Z,4.47
2019-05-14T02:13:32.275Z,4.12
2019-05-14T02:16:01.412Z,5.15
2019-05-14T02:18:52.059Z,6.45
2019-05-14T02:21:20.025Z,6.55
2019-05-14T02:23:48.482Z,9.18
2019-05-14T02:26:16.914Z,9.48
2019-05-14T02:28:45.380Z,13.20
2019-05-14T02:31:13.847Z,12.58
2019-05-14T02:33:42.352Z,13.95
2019-05-14T02:36:10.824Z,14.35
2019-05-14T02:41:13.650Z,15.83
2019-05-14T02:43:42.137Z,11.97
2019-05-14T02:46:16.700Z,7.33
2019-05-14T02:48:40.733Z,5.53
2019-05-14T02:51:10.518Z,4.45
2019-05-14T02:56:13.743Z,2.45
2019-05-14T02:58:43.400Z,2.20
2019-05-14T03:01:11.851Z,2.17
2019-05-14T03:03:40.938Z,2.30
2019-05-14T03:06:09.623Z,2.05
2019-05-14T03:08:38.987Z,1.60
2019-05-14T03:11:09.509Z,2.22
2019-05-14T03:13:39.994Z,2.08
2019-05-14T03:16:24.915Z,2.27
2019-05-14T03:18:39.651Z,1.70
2019-05-14T03:23:42.751Z,2.65
2019-05-14T03:26:11.212Z,2.65
2019-05-14T03:28:40.156Z,2.50
2019-05-14T03:31:12.729Z,2.17
2019-05-14T03:33:43.653Z,2.20
2019-05-14T03:36:17.251Z,2.30
2019-05-14T03:38:39.807Z,1.92
2019-05-14T03:41:09.762Z,1.85
2019-05-14T03:43:39.210Z,2.12
2019-05-14T03:46:09.702Z,2.30
2019-05-14T03:48:40.104Z,2.05
2019-05-14T03:51:09.078Z,1.98
2019-05-14T03:53:55.042Z,1.70
2019-05-14T03:56:29.889Z,2.25
2019-05-14T03:58:59.941Z,1.98
2019-05-14T04:01:33.803Z,1.80
2019-05-14T04:04:02.242Z,1.90
2019-05-14T04:06:30.671Z,1.98
2019-05-14T04:09:00.548Z,1.87
2019-05-14T04:11:29.554Z,1.90
2019-05-14T04:14:00.189Z,2.20
2019-05-14T04:16:29.223Z,1.90
2019-05-14T04:18:59.643Z,2.45
2019-05-14T04:21:29.775Z,2.47
2019-05-14T04:23:59.465Z,2.20
2019-05-14T04:26:30.304Z,1.82
2019-05-14T04:29:00.939Z,2.10
2019-05-14T04:33:59.351Z,2.55
2019-05-14T04:36:29.980Z,1.80
2019-05-14T04:39:00.635Z,1.80
2019-05-14T04:41:29.850Z,1.98
2019-05-14T04:43:59.515Z,1.90
2019-05-14T04:46:30.250Z,2.20
2019-05-14T04:48:59.142Z,2.50
2019-05-14T04:51:30.492Z,2.20
2019-05-14T04:54:03.880Z,2.17
2019-05-14T04:56:32.434Z,2.17
2019-05-14T04:59:00.868Z,2.58
2019-05-14T05:01:29.692Z,2.60
2019-05-14T05:03:59.309Z,2.62
2019-05-14T05:06:29.121Z,2.40
2019-05-14T05:08:59.981Z,2.80
2019-05-14T05:11:29.087Z,2.47
2019-05-14T05:13:59.301Z,2.62
2019-05-14T05:16:29.605Z,2.73
2019-05-14T05:18:59.402Z,3.05
2019-05-14T05:21:28.441Z,9.38
2019-05-14T05:23:58.451Z,12.10
2019-05-14T05:26:28.608Z,11.55
2019-05-14T05:29:05.649Z,10.85
2019-05-14T05:31:29.023Z,9.55
2019-05-14T05:33:58.205Z,4.17
2019-05-14T05:36:29.055Z,2.85
2019-05-14T05:38:59.315Z,2.77
2019-05-14T05:41:28.192Z,2.22
2019-05-14T05:43:58.886Z,2.37
2019-05-14T05:46:28.542Z,2.50
2019-05-14T05:48:58.700Z,2.70
2019-05-14T05:51:28.860Z,2.52
2019-05-14T05:53:58.837Z,3.25
2019-05-14T05:56:28.881Z,3.50
2019-05-14T05:58:57.720Z,5.58
2019-05-14T06:01:39.352Z,9.43
2019-05-14T06:03:58.343Z,9.95
2019-05-14T06:06:28.376Z,9.88
2019-05-14T06:08:58.309Z,12.28
2019-05-14T06:11:28.860Z,16.30
2019-05-14T06:13:58.808Z,17.37
2019-05-14T06:16:28.904Z,17.12
2019-05-14T06:18:58.792Z,12.88
2019-05-14T06:21:29.288Z,14.90
2019-05-14T06:23:58.218Z,14.03
2019-05-14T06:26:28.983Z,12.13
2019-05-14T06:28:59.670Z,10.80
2019-05-14T06:31:29.108Z,10.95
2019-05-14T06:33:59.211Z,11.20
2019-05-14T06:36:29.102Z,12.45
2019-05-14T06:38:58.599Z,11.93
2019-05-14T06:41:28.387Z,11.25
2019-05-14T06:43:59.172Z,12.50
2019-05-14T06:46:28.394Z,12.35
2019-05-14T06:48:59.077Z,11.60
2019-05-14T06:51:33.378Z,11.50
2019-05-14T06:54:01.873Z,10.30
2019-05-14T06:56:30.351Z,6.85
2019-05-14T06:58:58.812Z,7.67
2019-05-14T07:01:29.211Z,7.85
2019-05-14T07:03:58.136Z,7.65
2019-05-14T07:06:29.003Z,6.37
2019-05-14T07:08:58.854Z,4.20
2019-05-14T07:11:29.265Z,4.28
2019-05-14T07:14:11.318Z,6.17
2019-05-14T07:16:48.503Z,4.12
2019-05-14T07:19:18.583Z,5.03
2019-05-14T07:22:05.388Z,4.70
2019-05-14T07:24:36.983Z,3.42
2019-05-14T07:27:04.822Z,3.62
2019-05-14T07:29:33.296Z,3.45
2019-05-14T07:32:01.746Z,2.47
2019-05-14T07:34:30.206Z,2.40
2019-05-14T07:37:01.626Z,2.47
2019-05-14T07:39:30.189Z,2.77
2019-05-14T07:41:59.197Z,2.62
2019-05-14T07:44:29.661Z,1.82
2019-05-14T07:46:58.942Z,2.52
2019-05-14T07:49:29.066Z,2.20
2019-05-14T07:51:58.764Z,2.45
2019-05-14T07:54:28.300Z,2.10
2019-05-14T07:56:59.026Z,1.85
2019-05-14T07:59:28.711Z,2.37
2019-05-14T08:01:58.648Z,2.02
2019-05-14T08:04:29.027Z,2.27
2019-05-14T08:06:58.463Z,2.08
2019-05-14T08:09:28.239Z,2.50
2019-05-14T08:11:58.697Z,2.10
2019-05-14T08:14:30.209Z,2.10
2019-05-14T08:16:59.489Z,2.20
2019-05-14T08:19:31.434Z,1.75
2019-05-14T08:21:59.363Z,2.00
2019-05-14T08:24:30.064Z,1.77
2019-05-14T08:26:58.006Z,2.00
2019-05-14T08:29:28.542Z,1.82
2019-05-14T08:31:58.219Z,2.15
2019-05-14T08:34:29.431Z,1.75
2019-05-14T08:37:03.870Z,2.00
2019-05-14T08:39:30.061Z,2.55
2019-05-14T08:42:03.807Z,2.12
2019-05-14T08:44:29.521Z,1.90
2019-05-14T08:46:58.998Z,1.50
2019-05-14T08:49:39.175Z,1.92
2019-05-14T08:51:59.481Z,1.75
2019-05-14T08:54:50.589Z,1.77
2019-05-14T08:57:18.957Z,1.35
2019-05-14T09:07:31.033Z,1.57
2019-05-14T09:15:09.747Z,1.87
2019-05-14T09:17:38.987Z,1.90
2019-05-14T09:20:11.091Z,2.20
2019-05-14T09:22:39.761Z,1.60
2019-05-14T09:25:08.554Z,1.50
2019-05-14T09:27:38.799Z,1.90
2019-05-14T09:30:09.644Z,1.70
2019-05-14T09:32:38.960Z,1.72
2019-05-14T09:35:09.812Z,2.27
2019-05-14T09:40:12.663Z,1.57
2019-05-14T09:42:41.191Z,1.80
2019-05-14T09:45:10.931Z,1.70
2019-05-14T09:47:39.760Z,1.95
2019-05-14T09:50:18.364Z,3.33
2019-05-14T09:52:39.106Z,3.70
2019-05-14T09:58:01.692Z,3.80
2019-05-14T10:00:30.107Z,3.85
2019-05-14T10:02:59.713Z,2.98
2019-05-14T10:05:31.561Z,2.45
2019-05-14T10:08:00.051Z,1.87
2019-05-14T10:10:30.310Z,6.50
2019-05-14T10:13:01.436Z,9.10
2019-05-14T10:15:48.588Z,7.35
2019-05-14T10:18:18.978Z,8.53
2019-05-14T10:20:49.415Z,6.83
2019-05-14T10:23:18.931Z,7.83
2019-05-14T10:25:49.276Z,9.45
2019-05-14T10:28:19.284Z,7.55
2019-05-14T10:30:49.060Z,8.05
2019-05-14T10:33:18.252Z,7.13
2019-05-14T10:35:48.455Z,7.47
2019-05-14T10:38:19.032Z,10.53
2019-05-14T10:43:22.447Z,8.03
2019-05-14T10:45:53.209Z,6.42
2019-05-14T10:48:21.666Z,6.08
2019-05-14T10:50:58.902Z,5.65
2019-05-14T10:53:20.479Z,7.58
2019-05-14T10:55:50.359Z,3.70
2019-05-14T10:58:19.767Z,7.62
2019-05-14T11:00:49.480Z,8.58
2019-05-14T11:03:18.687Z,3.45
2019-05-14T11:05:48.297Z,5.25
2019-05-14T11:08:18.924Z,4.42
2019-05-14T11:10:49.445Z,6.72
2019-05-14T11:13:19.017Z,9.48
2019-05-14T11:15:48.652Z,9.45
2019-05-14T11:18:31.876Z,10.30
2019-05-14T11:23:58.749Z,9.40
2019-05-14T11:26:40.671Z,6.62
2019-05-14T11:29:20.074Z,6.97
2019-05-14T11:31:48.674Z,7.10
2019-05-14T11:34:19.338Z,7.80
2019-05-14T11:36:49.483Z,8.63
2019-05-14T11:39:18.112Z,9.68
2019-05-14T11:41:49.103Z,8.15
2019-05-14T11:44:16.892Z,8.05
2019-05-14T11:46:52.542Z,5.62
2019-05-14T11:49:15.491Z,6.72
2019-05-14T11:52:00.985Z,5.35
2019-05-14T11:54:15.178Z,3.50
2019-05-14T11:56:43.606Z,2.35
2019-05-14T11:59:12.055Z,2.12
2019-05-14T12:01:40.519Z,2.30
2019-05-14T12:04:09.205Z,2.70
2019-05-14T12:06:39.056Z,2.67
2019-05-14T12:09:11.643Z,3.30
2019-05-14T12:11:38.455Z,2.90
2019-05-14T12:14:08.974Z,2.72
2019-05-14T12:16:39.306Z,2.30
2019-05-14T12:19:11.663Z,2.12
2019-05-14T12:21:39.771Z,2.52
2019-05-14T12:24:13.406Z,2.87
2019-05-14T12:26:38.682Z,2.87
2019-05-14T12:29:09.601Z,3.02
2019-05-14T12:31:38.607Z,2.83
2019-05-14T12:34:07.305Z,2.95
2019-05-14T12:36:38.337Z,4.70
2019-05-14T12:39:09.293Z,6.28
2019-05-14T12:41:38.201Z,6.97
2019-05-14T12:44:09.358Z,5.30
2019-05-14T12:46:37.067Z,7.05
2019-05-14T12:49:05.598Z,3.58
2019-05-14T12:51:34.030Z,3.00
2019-05-14T12:54:02.484Z,2.67
2019-05-14T12:56:30.907Z,3.27
2019-05-14T12:58:59.367Z,2.92
2019-05-14T13:01:27.801Z,3.02
2019-05-14T13:03:56.239Z,2.70
2019-05-14T13:06:24.681Z,3.52
2019-05-14T13:08:53.136Z,3.20
2019-05-14T13:11:21.826Z,2.40
2019-05-14T13:13:50.276Z,2.58
2019-05-14T13:16:19.387Z,2.20
2019-05-14T13:18:49.923Z,2.72
2019-05-14T13:21:19.242Z,2.20
2019-05-14T13:23:48.688Z,2.27
2019-05-14T13:26:18.903Z,2.33
2019-05-14T13:28:50.739Z,1.95
2019-05-14T13:31:18.647Z,2.27
2019-05-14T13:33:48.820Z,2.20
2019-05-14T13:36:20.335Z,2.00
2019-05-14T13:38:49.053Z,1.90
2019-05-14T13:41:19.335Z,2.00
2019-05-14T13:43:50.419Z,1.95
2019-05-14T13:46:19.013Z,2.50
2019-05-14T13:48:49.919Z,1.95
2019-05-14T13:51:38.762Z,2.10
2019-05-14T13:54:08.479Z,2.10
2019-05-14T13:56:39.075Z,2.30
2019-05-14T13:59:09.541Z,1.98
2019-05-14T14:01:37.523Z,2.00
2019-05-14T14:04:11.176Z,2.52
2019-05-14T14:06:39.219Z,2.40
2019-05-14T14:09:12.015Z,2.37
2019-05-14T14:11:38.334Z,2.12
2019-05-14T14:14:08.770Z,2.65
2019-05-14T14:16:58.154Z,1.92
2019-05-14T14:19:28.056Z,2.35
2019-05-14T14:21:58.870Z,1.90
2019-05-14T14:24:28.839Z,2.27
2019-05-14T14:26:58.360Z,2.17
2019-05-14T14:29:26.271Z,1.72
2019-05-14T14:31:54.701Z,1.98
2019-05-14T14:34:23.296Z,2.58
2019-05-14T14:36:55.081Z,2.08
2019-05-14T14:39:22.155Z,1.80
2019-05-14T14:41:50.604Z,1.85
2019-05-14T14:44:19.315Z,2.00
2019-05-14T14:46:48.374Z,1.90
2019-05-14T14:49:19.085Z,1.50
2019-05-14T14:51:49.167Z,1.77
2019-05-14T14:54:17.278Z,2.22
2019-05-14T14:56:45.703Z,1.90
2019-05-14T14:59:14.166Z,2.42
2019-05-14T15:01:42.724Z,2.65
2019-05-14T15:04:13.540Z,2.37
2019-05-14T15:06:42.502Z,1.95
2019-05-14T15:09:11.221Z,1.77
2019-05-14T15:11:40.052Z,2.90
2019-05-14T15:14:08.603Z,2.65
2019-05-14T15:16:39.064Z,1.80
2019-05-14T15:19:09.251Z,2.00
2019-05-14T15:22:03.909Z,1.90
2019-05-14T15:24:32.319Z,1.75
2019-05-14T15:27:07.898Z,1.87
2019-05-14T15:29:30.916Z,2.05
2019-05-14T15:31:59.432Z,2.40
2019-05-14T15:34:29.706Z,2.00
2019-05-14T15:36:59.837Z,2.35
2019-05-14T15:39:30.190Z,1.90
2019-05-14T15:42:03.895Z,1.95
2019-05-14T15:44:46.449Z,1.87
2019-05-14T15:46:58.940Z,1.82
2019-05-14T15:49:28.365Z,2.65
2019-05-14T15:51:56.931Z,2.33
2019-05-14T15:54:39.230Z,2.52
2019-05-14T15:56:55.474Z,2.45
2019-05-14T15:59:24.353Z,2.20
2019-05-14T16:01:53.678Z,1.70
2019-05-14T16:04:22.136Z,1.52
2019-05-14T16:06:50.558Z,1.50
2019-05-14T16:09:19.627Z,1.95
2019-05-14T16:11:48.389Z,1.85
2019-05-14T16:14:18.964Z,1.98
2019-05-14T16:16:48.678Z,2.58
2019-05-14T16:19:39.008Z,3.22
2019-05-14T16:22:09.493Z,5.25
2019-05-14T16:24:54.977Z,4.08
2019-05-14T16:27:08.391Z,3.92
2019-05-14T16:29:45.099Z,4.22
2019-05-14T16:32:08.414Z,4.83
2019-05-14T16:34:40.855Z,4.17
2019-05-14T16:37:11.034Z,6.08
2019-05-14T16:39:39.041Z,8.68
2019-05-14T16:42:07.350Z,8.88
2019-05-14T16:44:35.778Z,11.97
2019-05-14T16:47:04.232Z,12.33
2019-05-14T16:49:34.115Z,13.03
2019-05-14T16:52:02.934Z,13.30
2019-05-14T16:54:31.369Z,15.43
2019-05-14T16:56:59.832Z,17.45
2019-05-14T16:59:29.458Z,17.02
2019-05-14T17:01:58.625Z,18.10
2019-05-14T17:04:29.241Z,17.20
2019-05-14T17:06:58.871Z,19.12
2019-05-14T17:09:28.255Z,17.85
2019-05-14T17:11:58.815Z,18.77
2019-05-14T17:14:29.138Z,18.60
2019-05-14T17:16:59.355Z,21.45
2019-05-14T17:19:29.648Z,20.35
2019-05-14T17:21:59.447Z,21.60
2019-05-14T17:27:01.755Z,18.05
2019-05-14T17:29:30.209Z,15.95
2019-05-14T17:31:58.653Z,12.40
2019-05-14T17:34:29.246Z,12.47
2019-05-14T17:36:59.409Z,12.30
2019-05-14T17:39:28.277Z,14.83
2019-05-14T17:41:58.785Z,16.42
2019-05-14T17:44:26.826Z,19.98
2019-05-14T17:46:55.262Z,20.32
2019-05-14T17:49:23.714Z,21.15
2019-05-14T17:51:52.175Z,21.73
2019-05-14T17:54:20.629Z,18.40
2019-05-14T17:56:49.123Z,17.82
2019-05-14T17:59:19.146Z,16.02
2019-05-14T18:01:47.708Z,15.70
2019-05-14T18:04:18.204Z,16.50
2019-05-14T18:09:20.819Z,17.70
2019-05-14T18:11:51.966Z,17.48
2019-05-14T18:14:21.326Z,17.55
2019-05-14T18:16:49.837Z,14.07
2019-05-14T18:19:37.976Z,14.20
2019-05-14T18:22:08.710Z,11.18
2019-05-14T18:24:39.055Z,9.85
2019-05-14T18:27:08.345Z,8.03
2019-05-14T18:29:39.038Z,6.08
2019-05-14T18:32:08.985Z,6.58
2019-05-14T18:34:39.204Z,5.78
2019-05-14T18:37:13.502Z,4.42
2019-05-14T18:39:39.418Z,3.08
2019-05-14T18:42:08.647Z,2.52
2019-05-14T18:44:39.112Z,3.12
2019-05-14T18:47:08.745Z,3.05
2019-05-14T18:49:37.457Z,3.10
2019-05-14T18:52:05.887Z,3.90
2019-05-14T18:54:34.332Z,4.33
2019-05-14T18:57:02.934Z,4.30
2019-05-14T18:59:31.443Z,4.42
2019-05-14T19:02:00.012Z,4.22
2019-05-14T19:04:28.444Z,4.53
2019-05-14T19:06:58.996Z,4.47
2019-05-14T19:09:29.068Z,4.67
2019-05-14T19:11:58.791Z,4.62
2019-05-14T19:14:29.213Z,4.10
2019-05-14T19:16:58.547Z,4.67
2019-05-14T19:19:29.272Z,5.92
2019-05-14T19:21:58.435Z,6.03
2019-05-14T19:24:28.691Z,5.42
2019-05-14T19:26:59.360Z,4.90
2019-05-14T19:29:28.135Z,4.42
2019-05-14T19:31:56.791Z,5.22
2019-05-14T19:34:25.300Z,7.78
2019-05-14T19:36:53.716Z,7.90
2019-05-14T19:39:22.210Z,8.70
2019-05-14T19:41:50.700Z,8.23
2019-05-14T19:44:19.258Z,8.73
2019-05-14T19:46:49.212Z,8.78
2019-05-14T19:49:18.424Z,10.00
2019-05-14T19:51:48.254Z,10.23
2019-05-14T19:54:19.463Z,10.03
2019-05-14T19:56:56.384Z,11.43
2019-05-14T19:59:18.764Z,11.55
2019-05-14T20:01:48.377Z,10.60
2019-05-14T20:04:18.259Z,10.30
2019-05-14T20:06:49.281Z,11.40
2019-05-14T20:09:18.192Z,12.75
2019-05-14T20:11:48.878Z,13.62
2019-05-14T20:14:16.731Z,16.10
2019-05-14T20:16:45.180Z,17.12
2019-05-14T20:19:13.621Z,15.28
2019-05-14T20:21:42.260Z,15.10
2019-05-14T20:24:10.684Z,14.47
2019-05-14T20:26:39.260Z,14.65
2019-05-14T20:29:08.760Z,15.05
2019-05-14T20:31:38.933Z,15.60
2019-05-14T20:34:28.568Z,16.67
2019-05-14T20:36:58.825Z,16.77
2019-05-14T20:39:29.407Z,19.90
2019-05-14T20:41:58.412Z,22.02
2019-05-14T20:44:28.012Z,24.40
2019-05-14T20:46:58.339Z,25.40
2019-05-14T20:49:28.424Z,26.93
2019-05-14T20:51:59.388Z,27.00
2019-05-14T20:54:28.991Z,27.70
2019-05-14T20:56:58.620Z,28.98
2019-05-14T20:59:48.241Z,26.00
2019-05-14T21:02:18.629Z,27.10
2019-05-14T21:04:53.521Z,26.12
2019-05-14T21:07:16.917Z,24.70
2019-05-14T21:09:45.401Z,23.65
2019-05-14T21:12:13.853Z,23.95
2019-05-14T21:14:42.319Z,22.87
2019-05-14T21:17:10.757Z,22.10
2019-05-14T21:19:39.223Z,19.45
2019-05-14T21:22:08.423Z,19.25
2019-05-14T21:24:39.127Z,21.95
2019-05-14T21:27:09.279Z,21.73
2019-05-14T21:29:38.669Z,21.30
2019-05-14T21:32:08.230Z,20.45
2019-05-14T21:34:38.156Z,21.15
2019-05-14T21:37:08.980Z,19.30
2019-05-14T21:39:38.350Z,18.20
2019-05-14T21:42:07.767Z,17.17
2019-05-14T21:44:39.168Z,16.70
2019-05-14T21:47:08.327Z,14.80
2019-05-14T21:49:38.827Z,15.08
2019-05-14T21:52:08.887Z,13.85
2019-05-14T21:54:39.307Z,12.80
2019-05-14T21:57:08.485Z,10.53
2019-05-14T21:59:39.000Z,8.58
2019-05-14T22:02:07.856Z,8.57
2019-05-14T22:04:38.339Z,7.95
2019-05-14T22:07:06.487Z,8.25
2019-05-14T22:09:34.928Z,6.80
2019-05-14T22:12:03.400Z,5.67
2019-05-14T22:14:31.828Z,5.00
2019-05-14T22:17:00.291Z,4.97
2019-05-14T22:19:28.774Z,3.22
2019-05-14T22:21:58.710Z,3.62
2019-05-14T22:24:28.705Z,3.12
2019-05-14T22:26:58.205Z,2.80
2019-05-14T22:29:28.613Z,2.37
2019-05-14T22:31:58.713Z,2.37
2019-05-14T22:34:28.043Z,2.12
2019-05-14T22:36:58.145Z,1.75
2019-05-14T22:39:29.094Z,1.72
2019-05-14T22:42:00.237Z,1.75
2019-05-14T22:44:28.867Z,1.60
2019-05-14T22:46:58.750Z,1.70
2019-05-14T22:49:28.460Z,1.47
2019-05-14T22:51:58.820Z,1.45
2019-05-14T22:54:29.159Z,2.10
2019-05-14T22:57:17.071Z,1.60
2019-05-14T22:59:45.529Z,1.70
2019-05-14T23:02:13.949Z,1.17
2019-05-14T23:04:42.397Z,1.55
2019-05-14T23:07:10.834Z,1.60
2019-05-14T23:09:39.282Z,1.55
2019-05-14T23:12:12.083Z,1.60
2019-05-14T23:14:39.063Z,1.40
2019-05-14T23:17:08.195Z,1.42
2019-05-14T23:19:37.165Z,1.60
2019-05-14T23:22:05.604Z,1.35
2019-05-14T23:24:34.061Z,1.47
2019-05-14T23:27:02.532Z,1.05
2019-05-14T23:29:31.578Z,1.30
2019-05-14T23:32:00.054Z,1.42
2019-05-14T23:34:28.596Z,1.20
2019-05-14T23:36:58.541Z,1.30
2019-05-14T23:39:28.737Z,1.30
2019-05-14T23:41:58.345Z,1.87
2019-05-14T23:44:28.768Z,1.42
2019-05-14T23:46:58.813Z,1.30
2019-05-14T23:49:48.369Z,1.30
2019-05-14T23:52:19.176Z,1.67
2019-05-14T23:54:48.099Z,1.30
2019-05-14T23:57:18.254Z,1.50
2019-05-14T23:59:48.276Z,1.70
